Time;durP1;ratioP1;P1;durP2;ratioP2;P2;SDS_P1;SDS_P2;PMS_P1;PMS_P2;Temp;Humidity;BMP_temperature;BMP_pressure;BME280_temperature;BME280_humidity;BME280_pressure;Samples;Min_cycle;Max_cycle;Signal;HPM_P1;HPM_P2
2021/09/09 00:02:02;;;;;;;10.57;9.60;;;18.80;99.90;;;;;;4960621;29;20464;-85
2021/09/09 00:04:28;;;;;;;11.70;10.60;;;18.70;99.90;;;;;;4961643;29;20588;-85
2021/09/09 00:06:55;;;;;;;10.00;8.80;;;18.70;99.90;;;;;;4961540;29;20458;-85
2021/09/09 00:09:22;;;;;;;11.77;10.20;;;18.70;99.90;;;;;;4961865;29;20466;-85
2021/09/09 00:11:49;;;;;;;11.10;9.60;;;18.70;99.90;;;;;;4963341;29;20460;-85
2021/09/09 00:14:19;;;;;;;12.33;11.03;;;18.60;99.90;;;;;;4962596;29;20476;-85
2021/09/09 00:16:46;;;;;;;11.67;10.57;;;18.60;99.90;;;;;;4962370;29;20976;-84
2021/09/09 00:19:14;;;;;;;11.30;10.07;;;18.60;99.90;;;;;;4961232;29;20456;-85
2021/09/09 00:21:41;;;;;;;11.03;9.60;;;18.60;99.90;;;;;;4960856;29;20461;-85
2021/09/09 00:24:08;;;;;;;10.97;9.70;;;18.60;99.90;;;;;;4961528;29;20483;-85
2021/09/09 00:26:34;;;;;;;10.67;9.60;;;18.60;99.90;;;;;;4961183;29;20453;-84
2021/09/09 00:29:01;;;;;;;10.30;9.40;;;18.60;99.90;;;;;;4961152;28;20455;-85
2021/09/09 00:31:29;;;;;;;10.87;9.93;;;18.50;99.90;;;;;;4960529;29;20468;-85
2021/09/09 00:33:56;;;;;;;11.20;9.50;;;18.60;99.90;;;;;;4961113;28;20479;-85
2021/09/09 00:36:22;;;;;;;10.17;9.37;;;18.50;99.90;;;;;;4961481;29;20491;-84
2021/09/09 00:38:49;;;;;;;11.37;10.13;;;18.50;99.90;;;;;;4960906;28;20911;-85
2021/09/09 00:41:16;;;;;;;10.53;9.50;;;18.50;99.90;;;;;;4961510;28;20463;-85
2021/09/09 00:43:43;;;;;;;10.97;9.97;;;18.50;99.90;;;;;;4960198;28;20488;-84
2021/09/09 00:46:22;;;;;;;10.77;9.90;;;18.40;99.90;;;;;;4960832;29;20818;-85
2021/09/09 00:48:51;;;;;;;10.47;9.47;;;18.40;99.90;;;;;;4960112;29;20460;-85
2021/09/09 00:51:17;;;;;;;10.83;9.80;;;18.40;99.90;;;;;;4960550;28;20478;-85
2021/09/09 00:53:45;;;;;;;12.77;11.67;;;18.30;99.90;;;;;;4960648;29;20476;-85
2021/09/09 00:56:13;;;;;;;10.97;10.07;;;18.30;99.90;;;;;;4960422;29;21030;-85
2021/09/09 00:58:42;;;;;;;12.50;11.30;;;18.30;99.90;;;;;;4960424;28;20452;-85
2021/09/09 01:01:09;;;;;;;9.73;8.80;;;18.30;99.90;;;;;;4961009;29;20491;-85
2021/09/09 01:03:36;;;;;;;12.43;11.17;;;18.30;99.90;;;;;;4960329;28;20849;-85
2021/09/09 01:06:04;;;;;;;10.23;9.33;;;18.30;99.90;;;;;;4960736;29;20508;-85
2021/09/09 01:08:31;;;;;;;12.37;10.33;;;18.30;99.90;;;;;;4960557;29;20464;-85
2021/09/09 01:10:59;;;;;;;10.80;9.80;;;18.30;99.90;;;;;;4959952;29;20459;-85
2021/09/09 01:13:25;;;;;;;9.00;8.20;;;18.20;99.90;;;;;;4959423;28;20480;-85
2021/09/09 01:15:52;;;;;;;10.83;9.80;;;18.20;99.90;;;;;;4960452;29;20488;-85
2021/09/09 01:18:19;;;;;;;10.27;9.37;;;18.20;99.90;;;;;;4960758;29;20482;-84
2021/09/09 01:20:48;;;;;;;10.70;9.80;;;18.20;99.90;;;;;;4960553;29;20464;-85
2021/09/09 01:23:17;;;;;;;10.70;9.80;;;18.20;99.90;;;;;;4959584;28;20480;-85
2021/09/09 01:25:45;;;;;;;11.17;10.20;;;18.20;99.90;;;;;;4960854;28;20455;-84
2021/09/09 01:28:11;;;;;;;11.70;10.50;;;18.20;99.90;;;;;;4960495;29;20464;-84
2021/09/09 01:30:39;;;;;;;10.77;9.83;;;18.20;99.90;;;;;;4960511;29;20457;-84
2021/09/09 01:33:06;;;;;;;10.97;9.97;;;18.20;99.90;;;;;;4959654;29;20475;-84
2021/09/09 01:35:32;;;;;;;11.00;10.00;;;18.10;99.90;;;;;;4959965;29;20488;-85
2021/09/09 01:37:59;;;;;;;11.33;10.27;;;18.10;99.90;;;;;;4960139;28;20845;-85
2021/09/09 01:40:30;;;;;;;11.10;10.20;;;18.10;99.90;;;;;;4959557;28;20455;-85
2021/09/09 01:43:00;;;;;;;9.97;9.17;;;18.10;99.90;;;;;;4959405;28;20493;-85
2021/09/09 01:45:27;;;;;;;11.47;10.47;;;18.10;99.90;;;;;;4960198;29;20462;-85
2021/09/09 01:47:54;;;;;;;11.03;10.03;;;18.10;99.90;;;;;;4959614;29;20540;-84
2021/09/09 01:50:21;;;;;;;10.60;9.43;;;18.10;99.90;;;;;;4960113;29;20466;-85
2021/09/09 01:52:48;;;;;;;12.23;11.03;;;18.00;99.90;;;;;;4959477;28;20705;-85
2021/09/09 01:55:15;;;;;;;10.30;9.50;;;18.00;99.90;;;;;;4959655;29;20464;-85
2021/09/09 01:57:41;;;;;;;11.40;10.47;;;18.00;99.90;;;;;;4959882;29;20956;-85
2021/09/09 02:00:11;;;;;;;9.87;8.97;;;18.00;99.90;;;;;;4959923;29;20453;-84
2021/09/09 02:02:38;;;;;;;11.73;10.67;;;18.00;99.90;;;;;;4958881;29;20990;-85
2021/09/09 02:05:05;;;;;;;12.83;9.83;;;18.00;99.90;;;;;;4959574;29;20451;-85
2021/09/09 02:07:32;;;;;;;11.33;10.30;;;18.00;99.90;;;;;;4960124;29;20447;-85
2021/09/09 02:09:59;;;;;;;11.40;10.37;;;18.00;99.90;;;;;;4962946;28;20449;-85
2021/09/09 02:12:26;;;;;;;10.60;9.60;;;17.90;99.90;;;;;;4963118;29;20475;-85
2021/09/09 02:14:52;;;;;;;12.10;11.00;;;17.90;99.90;;;;;;4963880;29;20457;-84
2021/09/09 02:17:20;;;;;;;13.17;11.97;;;17.90;99.90;;;;;;4964006;29;20528;-85
2021/09/09 02:19:47;;;;;;;12.80;11.50;;;17.90;99.90;;;;;;4963289;29;20453;-85
2021/09/09 02:22:14;;;;;;;11.10;10.00;;;17.90;99.90;;;;;;4962759;29;20459;-85
2021/09/09 02:24:44;;;;;;;13.47;12.17;;;17.80;99.90;;;;;;4963767;29;20471;-84
2021/09/09 02:27:12;;;;;;;14.07;11.57;;;17.80;99.90;;;;;;4963676;29;20458;-85
2021/09/09 02:29:39;;;;;;;11.67;10.57;;;17.80;99.90;;;;;;4963363;28;20483;-85
2021/09/09 02:32:07;;;;;;;13.10;11.97;;;17.80;99.90;;;;;;4962492;29;20455;-85
2021/09/09 02:34:35;;;;;;;12.23;11.03;;;17.80;99.90;;;;;;4962750;28;20455;-85
2021/09/09 02:37:01;;;;;;;12.37;11.20;;;17.70;99.90;;;;;;4963067;29;20882;-85
2021/09/09 02:39:28;;;;;;;12.70;11.50;;;17.70;99.90;;;;;;4963567;29;20455;-85
2021/09/09 02:41:55;;;;;;;14.10;12.70;;;17.70;99.90;;;;;;4964155;29;20448;-85
2021/09/09 02:44:22;;;;;;;13.60;12.40;;;17.70;99.90;;;;;;4964619;28;20483;-85
2021/09/09 02:46:48;;;;;;;13.33;12.10;;;17.60;99.90;;;;;;4963605;29;20455;-85
2021/09/09 02:49:15;;;;;;;13.80;12.50;;;17.50;99.90;;;;;;4963208;29;20470;-85
2021/09/09 02:51:43;;;;;;;12.17;11.17;;;17.50;99.90;;;;;;4961830;29;20472;-85
2021/09/09 02:54:10;;;;;;;13.43;12.13;;;17.50;99.90;;;;;;4962342;28;20483;-85
2021/09/09 02:56:36;;;;;;;13.80;12.50;;;17.50;99.90;;;;;;4963822;29;20513;-84
2021/09/09 02:59:03;;;;;;;12.43;11.33;;;17.50;99.90;;;;;;4963725;28;20460;-85
2021/09/09 03:01:30;;;;;;;14.03;11.40;;;17.50;99.90;;;;;;4962795;29;20458;-85
2021/09/09 03:03:57;;;;;;;16.63;12.07;;;17.50;99.90;;;;;;4963297;29;20475;-84
2021/09/09 03:06:23;;;;;;;13.37;12.17;;;17.50;99.90;;;;;;4963327;29;20456;-85
2021/09/09 03:08:51;;;;;;;11.53;10.53;;;17.50;99.90;;;;;;4963099;29;20970;-84
2021/09/09 03:11:18;;;;;;;11.43;10.33;;;17.40;99.90;;;;;;4962877;28;20471;-85
2021/09/09 03:13:45;;;;;;;11.30;10.33;;;17.40;99.90;;;;;;4962080;29;20487;-85
2021/09/09 03:16:12;;;;;;;13.00;11.20;;;17.40;99.90;;;;;;4962499;29;20487;-84
2021/09/09 03:18:38;;;;;;;13.47;12.20;;;17.40;99.90;;;;;;4963014;29;20462;-85
2021/09/09 03:21:05;;;;;;;11.60;10.53;;;17.30;99.90;;;;;;4962240;28;20459;-85
2021/09/09 03:23:32;;;;;;;14.17;12.97;;;17.30;99.90;;;;;;4962036;29;20479;-84
2021/09/09 03:26:00;;;;;;;13.50;12.20;;;17.30;99.90;;;;;;4962845;29;20461;-85
2021/09/09 03:28:27;;;;;;;12.80;11.70;;;17.30;99.90;;;;;;4962611;29;20460;-85
2021/09/09 03:30:54;;;;;;;13.37;12.17;;;17.30;99.90;;;;;;4963257;29;20829;-85
2021/09/09 03:33:20;;;;;;;13.40;12.17;;;17.30;99.90;;;;;;4963279;29;20489;-85
2021/09/09 03:35:47;;;;;;;12.50;11.30;;;17.20;99.90;;;;;;4964065;29;20455;-84
2021/09/09 03:38:14;;;;;;;14.37;11.97;;;17.30;99.90;;;;;;4962606;29;20451;-85
2021/09/09 03:40:41;;;;;;;13.10;11.70;;;17.30;99.90;;;;;;4962230;28;20464;-85
2021/09/09 03:43:09;;;;;;;12.67;11.57;;;17.20;99.90;;;;;;4962003;29;20559;-85
2021/09/09 03:45:36;;;;;;;12.63;11.47;;;17.30;99.90;;;;;;4962831;29;20460;-85
2021/09/09 03:48:03;;;;;;;13.50;12.37;;;17.30;99.90;;;;;;4962408;29;20822;-84
2021/09/09 03:50:30;;;;;;;11.93;10.90;;;17.30;99.90;;;;;;4961714;29;20455;-85
2021/09/09 03:52:56;;;;;;;11.60;10.60;;;17.20;99.90;;;;;;4961754;29;20481;-85
2021/09/09 03:55:23;;;;;;;12.37;11.17;;;17.30;99.90;;;;;;4961699;29;20459;-85
2021/09/09 03:57:50;;;;;;;11.90;10.80;;;17.20;99.90;;;;;;4962048;29;20491;-85
2021/09/09 04:00:19;;;;;;;10.93;10.03;;;17.20;99.90;;;;;;4962042;29;20878;-85
2021/09/09 04:02:46;;;;;;;12.63;11.47;;;17.10;99.90;;;;;;4961450;29;20472;-85
2021/09/09 04:05:12;;;;;;;12.40;11.30;;;17.10;99.90;;;;;;4961935;29;20465;-85
2021/09/09 04:07:39;;;;;;;13.83;11.40;;;17.20;99.90;;;;;;4962474;29;20456;-85
2021/09/09 04:10:07;;;;;;;11.93;10.80;;;17.30;99.90;;;;;;4961552;29;20454;-85
2021/09/09 04:12:33;;;;;;;12.17;10.87;;;17.40;99.90;;;;;;4961351;28;20472;-85
2021/09/09 04:15:02;;;;;;;11.53;10.30;;;17.40;99.90;;;;;;4961647;28;20459;-84
2021/09/09 04:17:30;;;;;;;11.93;10.73;;;17.50;99.90;;;;;;4961157;29;20521;-85
2021/09/09 04:19:57;;;;;;;13.63;11.80;;;17.50;99.90;;;;;;4961390;29;20463;-85
2021/09/09 04:22:24;;;;;;;12.90;11.60;;;17.50;99.90;;;;;;4960074;29;20514;-85
2021/09/09 04:24:51;;;;;;;11.63;10.73;;;17.50;99.90;;;;;;4961638;29;20453;-84
2021/09/09 04:27:19;;;;;;;13.17;11.77;;;17.40;99.90;;;;;;4960699;29;20456;-84
2021/09/09 04:29:46;;;;;;;12.00;10.90;;;17.40;99.90;;;;;;4960577;29;20470;-83
2021/09/09 04:32:13;;;;;;;11.73;10.70;;;17.40;99.90;;;;;;4959950;28;20467;-84
2021/09/09 04:34:41;;;;;;;13.07;11.87;;;17.40;99.90;;;;;;4964372;29;20459;-84
2021/09/09 04:37:08;;;;;;;12.53;11.33;;;17.40;99.90;;;;;;4961813;29;20495;-84
2021/09/09 04:39:35;;;;;;;12.83;11.63;;;17.40;99.90;;;;;;4961948;29;20812;-84
2021/09/09 04:42:02;;;;;;;11.70;10.70;;;17.40;99.90;;;;;;4960560;29;20454;-84
2021/09/09 04:44:28;;;;;;;12.83;11.73;;;17.40;99.90;;;;;;4960689;29;20483;-84
2021/09/09 04:46:55;;;;;;;11.47;10.50;;;17.30;99.90;;;;;;4961061;29;20451;-85
2021/09/09 04:49:22;;;;;;;12.83;11.63;;;17.40;99.90;;;;;;4959919;29;20459;-85
2021/09/09 04:51:50;;;;;;;13.83;12.43;;;17.30;99.90;;;;;;4958680;29;20458;-84
2021/09/09 04:54:17;;;;;;;12.20;11.10;;;17.30;99.90;;;;;;4959480;29;20475;-84
2021/09/09 04:56:44;;;;;;;12.50;11.20;;;17.30;99.90;;;;;;4960299;28;21041;-85
2021/09/09 04:59:10;;;;;;;12.37;11.37;;;17.30;99.90;;;;;;4959641;29;20460;-84
2021/09/09 05:01:37;;;;;;;12.20;11.00;;;17.30;99.90;;;;;;4959152;29;20455;-83
2021/09/09 05:04:04;;;;;;;11.77;10.67;;;17.30;99.90;;;;;;4959557;28;20476;-85
2021/09/09 05:06:31;;;;;;;12.53;11.43;;;17.30;99.90;;;;;;4959139;29;20496;-85
2021/09/09 05:08:59;;;;;;;12.30;11.20;;;17.30;99.90;;;;;;4958958;28;20457;-85
2021/09/09 05:11:26;;;;;;;12.07;11.20;;;17.20;99.90;;;;;;4957948;29;20972;-85
2021/09/09 05:13:52;;;;;;;13.27;11.50;;;17.20;99.90;;;;;;4958610;29;20476;-85
2021/09/09 05:16:19;;;;;;;13.53;12.10;;;17.10;99.90;;;;;;4958900;29;20459;-85
2021/09/09 05:19:14;;;;;;;12.17;11.17;;;17.10;99.90;;;;;;4958968;29;20846;-82
2021/09/09 05:21:41;;;;;;;14.53;13.10;;;17.10;99.90;;;;;;4956986;29;20473;-82
2021/09/09 05:24:09;;;;;;;11.30;10.30;;;17.20;99.90;;;;;;4958343;29;20472;-83
2021/09/09 05:26:36;;;;;;;12.60;11.23;;;17.20;99.90;;;;;;4959116;29;20951;-82
2021/09/09 05:29:03;;;;;;;13.40;12.20;;;17.20;99.90;;;;;;4958495;29;20963;-82
2021/09/09 05:31:30;;;;;;;11.07;10.20;;;17.20;99.90;;;;;;4957517;28;20458;-83
2021/09/09 05:33:56;;;;;;;13.00;11.00;;;17.20;99.90;;;;;;4958272;29;20471;-83
2021/09/09 05:36:23;;;;;;;13.90;12.27;;;17.30;99.90;;;;;;4957721;29;20818;-82
2021/09/09 05:38:50;;;;;;;12.23;11.23;;;17.30;99.90;;;;;;4948429;29;20451;-82
2021/09/09 05:41:18;;;;;;;12.63;11.43;;;17.40;99.90;;;;;;4947444;29;20462;-82
2021/09/09 05:43:45;;;;;;;12.13;11.10;;;17.40;99.90;;;;;;4943440;28;20502;-84
2021/09/09 05:46:11;;;;;;;13.67;12.43;;;17.50;99.90;;;;;;4952959;29;20514;-83
2021/09/09 05:48:38;;;;;;;12.73;11.53;;;17.60;99.90;;;;;;4955476;28;20452;-83
2021/09/09 05:51:07;;;;;;;12.67;11.43;;;17.70;99.90;;;;;;4949634;29;20452;-82
2021/09/09 05:53:34;;;;;;;11.70;10.77;;;17.80;99.90;;;;;;4946557;29;20852;-82
2021/09/09 05:56:01;;;;;;;10.73;9.83;;;17.90;99.90;;;;;;4946236;29;20454;-82
2021/09/09 05:58:29;;;;;;;11.97;10.97;;;18.00;99.90;;;;;;4946222;29;20500;-82
2021/09/09 06:00:55;;;;;;;10.90;9.90;;;18.10;99.90;;;;;;4946164;29;20449;-82
2021/09/09 06:03:25;;;;;;;10.27;9.47;;;18.20;99.90;;;;;;4945902;29;20852;-82
2021/09/09 06:05:59;;;;;;;10.20;9.20;;;18.30;99.90;;;;;;4947026;29;20484;-81
2021/09/09 06:08:25;;;;;;;10.63;9.63;;;18.40;99.90;;;;;;4945978;29;20460;-80
2021/09/09 06:10:53;;;;;;;11.00;10.00;;;18.50;99.90;;;;;;4946083;29;20457;-78
2021/09/09 06:13:20;;;;;;;11.03;10.00;;;18.50;99.90;;;;;;4944065;29;20531;-78
2021/09/09 06:15:48;;;;;;;11.40;10.20;;;18.50;99.90;;;;;;4944551;29;20449;-78
2021/09/09 06:18:15;;;;;;;10.40;9.43;;;18.50;99.90;;;;;;4945174;29;20496;-78
2021/09/09 06:20:41;;;;;;;11.07;9.87;;;18.70;99.90;;;;;;4945573;29;20453;-78
2021/09/09 06:23:08;;;;;;;10.77;9.67;;;18.80;99.90;;;;;;4944611;29;20481;-78
2021/09/09 06:25:35;;;;;;;10.67;9.67;;;19.00;99.90;;;;;;4945659;29;20464;-78
2021/09/09 06:28:02;;;;;;;11.60;9.20;;;19.00;99.90;;;;;;4945212;29;20456;-78
2021/09/09 06:30:28;;;;;;;11.93;10.73;;;19.10;99.90;;;;;;4944645;29;20457;-78
2021/09/09 06:32:57;;;;;;;9.90;9.00;;;19.30;99.90;;;;;;4944222;29;20477;-78
2021/09/09 06:35:23;;;;;;;9.97;9.13;;;19.30;99.90;;;;;;4944926;29;20457;-78
2021/09/09 06:37:50;;;;;;;10.60;9.60;;;19.40;99.90;;;;;;4945869;29;20496;-78
2021/09/09 06:40:17;;;;;;;9.43;8.73;;;19.50;99.90;;;;;;4945997;29;20458;-78
2021/09/09 06:42:44;;;;;;;13.90;10.30;;;19.60;99.90;;;;;;4944117;29;20488;-78
2021/09/09 06:45:12;;;;;;;11.20;10.17;;;19.60;99.90;;;;;;4945347;29;20548;-78
2021/09/09 06:47:38;;;;;;;10.80;9.90;;;19.60;99.90;;;;;;4945127;29;20449;-78
2021/09/09 06:50:08;;;;;;;10.70;9.80;;;19.70;99.90;;;;;;4945498;29;20464;-78
2021/09/09 06:52:35;;;;;;;11.30;10.07;;;19.80;99.90;;;;;;4944824;29;20473;-78
2021/09/09 06:55:02;;;;;;;10.23;9.40;;;19.80;99.90;;;;;;4943388;29;20480;-78
2021/09/09 06:57:28;;;;;;;10.80;9.83;;;19.80;99.90;;;;;;4941427;29;20489;-78
2021/09/09 06:59:55;;;;;;;10.17;9.37;;;20.00;99.90;;;;;;4942392;29;20468;-78
2021/09/09 07:02:22;;;;;;;11.07;10.27;;;20.10;99.90;;;;;;4941159;29;20875;-78
2021/09/09 07:04:48;;;;;;;10.47;9.63;;;20.10;99.90;;;;;;4942235;29;20454;-78
2021/09/09 07:07:16;;;;;;;11.40;10.40;;;20.20;99.90;;;;;;4941950;29;20480;-78
2021/09/09 07:09:43;;;;;;;10.93;9.93;;;20.30;99.90;;;;;;4941710;29;20855;-78
2021/09/09 07:12:10;;;;;;;10.90;9.83;;;20.40;99.90;;;;;;4940543;29;20469;-78
2021/09/09 07:14:37;;;;;;;9.97;9.27;;;20.40;99.90;;;;;;4941552;29;20456;-78
2021/09/09 07:17:04;;;;;;;12.20;11.00;;;20.60;99.90;;;;;;4941098;29;20469;-78
2021/09/09 07:19:30;;;;;;;11.20;10.20;;;20.60;99.90;;;;;;4941882;29;20455;-78
2021/09/09 07:21:57;;;;;;;10.63;9.70;;;20.70;99.90;;;;;;4941513;29;20463;-79
2021/09/09 07:24:25;;;;;;;10.40;9.50;;;20.80;99.90;;;;;;4942115;29;20491;-79
2021/09/09 07:26:52;;;;;;;10.10;9.20;;;20.80;99.90;;;;;;4942969;29;20463;-79
2021/09/09 07:29:19;;;;;;;11.77;10.77;;;21.00;99.90;;;;;;4942267;29;20456;-79
2021/09/09 07:31:46;;;;;;;11.83;8.93;;;21.00;99.90;;;;;;4941295;29;20455;-79
2021/09/09 07:34:13;;;;;;;10.37;9.43;;;21.10;99.90;;;;;;4942252;29;20847;-79
2021/09/09 07:36:40;;;;;;;10.33;9.53;;;21.20;99.90;;;;;;4941606;29;20463;-79
2021/09/09 07:39:07;;;;;;;10.60;9.70;;;21.40;99.90;;;;;;4941284;29;20502;-79
2021/09/09 07:41:35;;;;;;;9.87;9.10;;;21.50;99.90;;;;;;4941321;29;20460;-79
2021/09/09 07:44:02;;;;;;;8.80;8.10;;;21.70;99.90;;;;;;4941487;29;20474;-79
2021/09/09 07:46:30;;;;;;;9.60;8.73;;;21.80;99.90;;;;;;4941632;29;20455;-79
2021/09/09 07:48:56;;;;;;;9.30;8.50;;;21.90;99.90;;;;;;4941321;29;20452;-79
2021/09/09 07:51:23;;;;;;;9.67;8.87;;;21.90;99.90;;;;;;4940326;29;20461;-79
2021/09/09 07:53:50;;;;;;;10.70;9.60;;;22.10;99.90;;;;;;4940946;29;20487;-79
2021/09/09 07:56:17;;;;;;;9.93;9.20;;;22.20;99.90;;;;;;4941174;29;20455;-79
2021/09/09 07:58:48;;;;;;;9.40;8.70;;;22.40;99.90;;;;;;4940884;29;20497;-79
2021/09/09 08:01:17;;;;;;;9.73;8.93;;;22.60;99.90;;;;;;4940335;29;20454;-79
2021/09/09 08:03:44;;;;;;;8.70;8.00;;;22.80;99.90;;;;;;4940938;29;20469;-79
2021/09/09 08:06:10;;;;;;;9.83;9.03;;;23.00;99.90;;;;;;4940832;29;20460;-79
2021/09/09 08:08:37;;;;;;;8.90;8.07;;;23.20;99.90;;;;;;4940787;29;20457;-79
2021/09/09 08:11:04;;;;;;;9.03;8.20;;;23.30;99.00;;;;;;4941764;29;20458;-79
2021/09/09 08:13:31;;;;;;;9.67;8.83;;;23.30;99.00;;;;;;4940652;29;20469;-79
2021/09/09 08:15:59;;;;;;;9.17;8.47;;;23.40;98.60;;;;;;4941360;29;20454;-79
2021/09/09 08:18:26;;;;;;;7.70;7.00;;;23.40;98.60;;;;;;4941016;29;20497;-79
2021/09/09 08:20:54;;;;;;;9.23;8.53;;;23.50;98.20;;;;;;4940860;29;20834;-79
2021/09/09 08:23:21;;;;;;;10.13;9.33;;;23.40;98.10;;;;;;4940670;29;20477;-79
2021/09/09 08:25:47;;;;;;;9.00;7.93;;;23.50;97.80;;;;;;4941732;29;20461;-79
2021/09/09 08:28:16;;;;;;;10.23;9.40;;;23.50;98.30;;;;;;4940988;29;20457;-79
2021/09/09 08:30:43;;;;;;;8.87;8.17;;;23.60;98.00;;;;;;4941741;29;20458;-79
2021/09/09 08:33:11;;;;;;;9.63;8.83;;;23.60;98.50;;;;;;4940628;29;20481;-79
2021/09/09 08:35:40;;;;;;;10.10;9.20;;;23.60;97.50;;;;;;4941571;29;20457;-79
2021/09/09 08:38:07;;;;;;;9.40;8.37;;;23.60;97.40;;;;;;4941658;29;20586;-79
2021/09/09 08:40:36;;;;;;;8.60;7.80;;;23.60;97.50;;;;;;4941202;29;20467;-79
2021/09/09 08:43:03;;;;;;;8.53;7.83;;;23.60;96.70;;;;;;4939872;29;20486;-80
2021/09/09 08:45:30;;;;;;;8.67;7.97;;;23.50;96.60;;;;;;4937597;29;20515;-79
2021/09/09 08:48:01;;;;;;;8.60;8.00;;;23.50;96.00;;;;;;4938004;29;20454;-80
2021/09/09 08:50:29;;;;;;;8.50;7.97;;;23.50;96.40;;;;;;4937819;29;20461;-81
2021/09/09 08:52:58;;;;;;;10.33;9.40;;;23.60;96.50;;;;;;4937142;29;20846;-80
2021/09/09 08:55:25;;;;;;;8.60;7.90;;;23.60;97.00;;;;;;4937450;29;20457;-80
2021/09/09 08:57:51;;;;;;;8.70;8.03;;;23.70;96.50;;;;;;4937462;29;20824;-80
2021/09/09 09:00:18;;;;;;;9.73;8.73;;;23.70;96.40;;;;;;4937887;29;20533;-80
2021/09/09 09:02:53;;;;;;;8.77;7.97;;;23.80;96.40;;;;;;4936774;29;20477;-80
2021/09/09 09:05:20;;;;;;;9.23;8.43;;;23.90;96.60;;;;;;4937432;29;20945;-81
2021/09/09 09:07:56;;;;;;;8.57;7.87;;;24.00;96.80;;;;;;4937150;29;20458;-80
2021/09/09 09:10:23;;;;;;;10.50;7.60;;;24.10;96.70;;;;;;4937570;29;20453;-81
2021/09/09 09:12:50;;;;;;;8.80;8.00;;;24.00;96.30;;;;;;4936526;29;20473;-81
2021/09/09 09:15:19;;;;;;;8.83;8.10;;;24.00;96.40;;;;;;4937827;29;20457;-80
2021/09/09 09:18:01;;;;;;;8.87;8.00;;;24.00;96.10;;;;;;4937563;29;20525;-80
2021/09/09 09:20:38;;;;;;;9.20;8.30;;;24.10;96.10;;;;;;4936958;29;20461;-80
2021/09/09 09:23:21;;;;;;;7.73;7.10;;;24.10;96.20;;;;;;4936395;29;20477;-80
2021/09/09 09:25:50;;;;;;;8.90;8.10;;;24.20;95.90;;;;;;4937027;29;20978;-80
2021/09/09 09:28:37;;;;;;;8.83;8.20;;;24.10;96.00;;;;;;4937303;29;20930;-80
2021/09/09 09:31:05;;;;;;;8.50;7.80;;;24.20;96.50;;;;;;4936911;29;20460;-81
2021/09/09 09:33:34;;;;;;;8.60;7.90;;;24.30;96.20;;;;;;4936359;29;20478;-81
2021/09/09 09:36:20;;;;;;;9.13;8.33;;;24.40;96.50;;;;;;4937016;29;20457;-80
2021/09/09 09:38:49;;;;;;;9.30;7.60;;;24.60;95.50;;;;;;4936924;29;20573;-80
2021/09/09 09:41:19;;;;;;;8.10;7.60;;;24.80;95.40;;;;;;4936806;29;20459;-81
2021/09/09 09:43:54;;;;;;;8.50;7.90;;;25.00;95.70;;;;;;4936967;29;20932;-81
2021/09/09 09:46:26;;;;;;;10.00;9.03;;;25.20;94.80;;;;;;4936981;29;20456;-81
2021/09/09 09:48:53;;;;;;;8.53;7.73;;;25.20;94.50;;;;;;4937151;29;20450;-81
2021/09/09 09:51:39;;;;;;;9.23;8.37;;;25.20;95.10;;;;;;4936954;29;20455;-82
2021/09/09 09:54:12;;;;;;;8.53;7.80;;;25.30;94.90;;;;;;4942453;28;20474;-83
2021/09/09 09:56:40;;;;;;;8.37;7.57;;;25.40;94.80;;;;;;4956495;29;20458;-82
2021/09/09 09:59:07;;;;;;;9.17;8.47;;;25.40;94.30;;;;;;4957371;28;20487;-83
2021/09/09 10:01:35;;;;;;;7.93;7.13;;;25.50;94.20;;;;;;4957888;28;20451;-82
2021/09/09 10:04:05;;;;;;;7.97;7.37;;;25.60;94.40;;;;;;4954993;29;20855;-84
2021/09/09 10:06:50;;;;;;;8.67;7.80;;;25.80;93.80;;;;;;4954785;28;20970;-84
2021/09/09 10:09:19;;;;;;;8.37;7.67;;;25.70;93.80;;;;;;4960099;29;20546;-84
2021/09/09 10:11:46;;;;;;;8.23;7.40;;;25.70;93.80;;;;;;4959882;29;20453;-85
2021/09/09 10:14:21;;;;;;;8.60;7.90;;;25.70;93.50;;;;;;4955685;28;20484;-85
2021/09/09 10:16:48;;;;;;;7.93;7.33;;;25.70;94.10;;;;;;4955373;29;20462;-84
2021/09/09 10:19:24;;;;;;;7.57;6.97;;;26.00;93.50;;;;;;4957401;29;20501;-84
2021/09/09 10:21:53;;;;;;;8.33;7.63;;;26.20;93.20;;;;;;4954283;29;20440;-85
2021/09/09 10:24:30;;;;;;;7.87;7.27;;;26.30;92.40;;;;;;4954693;29;20486;-84
2021/09/09 10:27:16;;;;;;;9.13;7.80;;;26.40;92.40;;;;;;4953469;29;20455;-86
2021/09/09 10:29:50;;;;;;;8.13;6.30;;;26.50;92.50;;;;;;4954779;28;20433;-85
2021/09/09 10:32:49;;;;;;;7.57;6.80;;;26.70;91.80;;;;;;4960804;29;20442;-84
2021/09/09 10:35:33;;;;;;;8.13;7.43;;;26.70;90.70;;;;;;4959579;29;20452;-85
2021/09/09 10:38:28;;;;;;;6.70;6.10;;;26.60;90.10;;;;;;4960130;29;20546;-83
2021/09/09 10:40:58;;;;;;;6.80;6.20;;;26.70;90.70;;;;;;4959270;29;20461;-84
2021/09/09 10:43:46;;;;;;;8.43;6.57;;;26.80;90.20;;;;;;4956838;28;20531;-82
2021/09/09 10:46:23;;;;;;;6.03;5.63;;;26.90;90.70;;;;;;4955803;29;20460;-85
2021/09/09 10:49:31;;;;;;;7.03;6.43;;;26.90;90.40;;;;;;4955686;29;20532;-87
2021/09/09 10:52:11;;;;;;;8.17;7.17;;;26.80;90.10;;;;;;4933991;28;20535;-85
2021/09/09 10:58:36;;;;;;;7.30;6.80;;;27.00;90.00;;;;;;4878700;29;20946;-87
2021/09/09 11:01:05;;;;;;;6.37;5.80;;;27.10;90.50;;;;;;4878405;29;20543;-85
2021/09/09 11:03:48;;;;;;;6.30;5.80;;;27.20;90.00;;;;;;4879347;29;20565;-84
2021/09/09 11:06:17;;;;;;;6.63;5.93;;;27.30;88.90;;;;;;4877474;29;20588;-86
2021/09/09 11:08:46;;;;;;;5.70;5.30;;;27.30;90.00;;;;;;4878155;29;20458;-86
2021/09/09 11:11:39;;;;;;;6.07;5.50;;;27.60;89.90;;;;;;4877219;29;20458;-86
2021/09/09 11:14:33;;;;;;;6.17;5.77;;;28.10;88.30;;;;;;4955847;28;20834;-86
2021/09/09 11:17:00;;;;;;;6.50;5.90;;;28.40;85.10;;;;;;4955806;29;20545;-86
2021/09/09 11:19:34;;;;;;;5.70;5.30;;;28.80;85.70;;;;;;4955547;28;20492;-86
2021/09/09 11:22:04;;;;;;;5.80;5.40;;;29.20;83.00;;;;;;4955046;29;20563;-86
2021/09/09 11:24:35;;;;;;;6.50;6.00;;;29.50;83.00;;;;;;4954899;29;20487;-86
2021/09/09 11:27:03;;;;;;;5.90;5.40;;;30.00;84.10;;;;;;4954751;29;20537;-87
2021/09/09 11:29:30;;;;;;;5.90;5.40;;;30.50;80.40;;;;;;4955090;28;20453;-87
2021/09/09 11:31:58;;;;;;;7.80;5.50;;;31.00;77.40;;;;;;4954418;28;20546;-83
2021/09/09 11:34:30;;;;;;;5.90;5.47;;;31.30;74.20;;;;;;4956061;28;20498;-87
2021/09/09 11:37:01;;;;;;;6.57;6.07;;;31.20;72.40;;;;;;4956374;29;20468;-87
2021/09/09 11:39:33;;;;;;;6.20;5.00;;;31.20;72.60;;;;;;4956314;28;21081;-88
2021/09/09 11:41:59;;;;;;;6.13;5.60;;;31.20;71.00;;;;;;4970311;28;20899;-85
2021/09/09 11:44:28;;;;;;;5.17;4.77;;;31.20;71.90;;;;;;4964555;28;20487;-86
2021/09/09 11:46:58;;;;;;;6.57;6.03;;;31.40;71.60;;;;;;4936062;29;20946;-87
2021/09/09 11:49:27;;;;;;;6.40;5.93;;;31.20;71.90;;;;;;4971434;28;20966;-87
2021/09/09 11:51:55;;;;;;;7.43;6.83;;;30.70;72.50;;;;;;4973716;28;20457;-87
2021/09/09 11:54:27;;;;;;;6.40;5.90;;;30.20;72.70;;;;;;4974390;28;21069;-87
2021/09/09 11:57:04;;;;;;;7.43;6.83;;;29.60;73.50;;;;;;4974802;28;20462;-88
2021/09/09 12:00:01;;;;;;;8.10;7.40;;;29.30;75.60;;;;;;4974031;28;20485;-87
2021/09/09 12:02:32;;;;;;;7.10;6.40;;;29.00;76.20;;;;;;4972195;28;20538;-87
2021/09/09 12:05:02;;;;;;;7.33;6.63;;;28.80;75.50;;;;;;4974360;28;20440;-86
2021/09/09 12:07:31;;;;;;;8.17;6.30;;;28.60;75.70;;;;;;4977094;28;20963;-88
2021/09/09 12:10:00;;;;;;;7.47;6.83;;;28.40;77.00;;;;;;4980677;28;20458;-87
2021/09/09 12:12:30;;;;;;;6.87;6.13;;;28.20;75.00;;;;;;4978405;28;20478;-88
2021/09/09 12:14:59;;;;;;;6.53;6.03;;;28.20;75.40;;;;;;4980066;28;20457;-87
2021/09/09 12:17:26;;;;;;;6.57;5.97;;;28.20;76.40;;;;;;4977432;28;20820;-88
2021/09/09 12:19:57;;;;;;;6.37;5.87;;;28.50;76.00;;;;;;4978074;28;20493;-87
2021/09/09 12:22:53;;;;;;;7.60;7.10;;;28.70;74.70;;;;;;4978105;28;20466;-88
2021/09/09 12:25:30;;;;;;;6.97;6.47;;;29.00;73.50;;;;;;4961298;28;20522;-87
2021/09/09 12:28:07;;;;;;;6.50;6.00;;;29.50;72.60;;;;;;4978739;28;20451;-86
2021/09/09 12:30:36;;;;;;;7.27;6.57;;;30.10;71.10;;;;;;4979663;28;20473;-87
2021/09/09 12:33:05;;;;;;;7.23;6.37;;;30.20;69.80;;;;;;4977115;28;20471;-88
2021/09/09 12:35:33;;;;;;;7.40;6.87;;;30.60;70.40;;;;;;4975265;28;20960;-86
2021/09/09 12:41:05;;;;;;;6.50;5.90;;;30.90;66.10;;;;;;4970356;28;20500;-85
2021/09/09 12:43:33;;;;;;;6.20;5.67;;;30.90;65.40;;;;;;4978858;28;20550;-87
2021/09/09 12:46:03;;;;;;;6.80;6.30;;;30.80;65.40;;;;;;4976098;28;20472;-86
2021/09/09 12:48:32;;;;;;;6.77;6.27;;;31.10;66.70;;;;;;4979054;28;20442;-86
2021/09/09 12:51:03;;;;;;;5.77;5.47;;;31.50;64.20;;;;;;4977768;28;21010;-87
2021/09/09 12:53:32;;;;;;;6.70;6.20;;;31.70;65.10;;;;;;4977257;28;20578;-86